Time;durP1;ratioP1;P1;durP2;ratioP2;P2;SDS_P1;SDS_P2;PMS_P1;PMS_P2;Temp;Humidity;BMP_temperature;BMP_pressure;BME280_temperature;BME280_humidity;BME280_pressure;Samples;Min_cycle;Max_cycle;Signal;HPM_P1;HPM_P2
2021/04/17 00:01:15;;;;;;;10.65;7.85;;;;;;;9.32;44.85;94421.73;826917;71;33094;-79
2021/04/17 00:16:12;;;;;;;9.30;8.20;;;;;;;9.52;45.30;94444.28;827518;71;32062;-78
2021/04/17 00:31:14;;;;;;;11.05;7.35;;;;;;;8.35;60.36;94449.12;826624;71;33560;-77
2021/04/17 00:46:10;;;;;;;9.95;7.00;;;;;;;7.02;69.42;94442.82;827601;71;30299;-77
2021/04/17 01:01:14;;;;;;;7.37;6.67;;;;;;;6.32;74.10;94432.79;833529;71;32707;-77
2021/04/17 01:16:17;;;;;;;7.83;6.22;;;;;;;5.75;76.91;94404.09;833099;71;32752;-78
2021/04/17 01:31:13;;;;;;;5.55;5.05;;;;;;;5.53;78.72;94403.02;827638;71;30297;-79
2021/04/17 01:46:18;;;;;;;4.00;3.70;;;;;;;5.28;79.36;94393.36;828275;71;31319;-77
2021/04/17 02:01:17;;;;;;;3.85;3.55;;;;;;;5.01;82.25;94387.81;827097;71;32167;-76
2021/04/17 02:16:18;;;;;;;3.92;3.62;;;;;;;4.69;85.07;94390.54;834678;71;32253;-77
2021/04/17 02:31:09;;;;;;;5.62;4.90;;;;;;;4.56;88.37;94392.28;833961;71;29163;-81
2021/04/17 02:46:10;;;;;;;4.10;3.80;;;;;;;4.50;88.80;94395.39;827947;71;30051;-76
2021/04/17 03:01:42;;;;;;;4.65;4.25;;;;;;;4.53;89.31;94377.98;831354;71;29087;-78
2021/04/17 03:16:08;;;;;;;6.40;5.72;;;;;;;4.37;91.07;94378.41;827838;71;28673;-78
2021/04/17 03:31:14;;;;;;;9.15;6.78;;;;;;;4.28;92.65;94381.23;826865;71;32210;-76
2021/04/17 03:46:14;;;;;;;6.67;6.08;;;;;;;4.26;92.44;94380.70;828198;71;31674;-77
2021/04/17 04:01:09;;;;;;;7.33;6.35;;;;;;;4.21;92.21;94388.45;827785;71;29141;-78
2021/04/17 04:16:15;;;;;;;7.75;7.05;;;;;;;4.18;92.88;94400.64;817555;71;31819;-78
2021/04/17 04:31:19;;;;;;;9.83;8.23;;;;;;;4.07;93.43;94389.91;826976;71;32324;-76
2021/04/17 04:46:10;;;;;;;8.90;8.00;;;;;;;4.10;93.79;94368.66;834242;71;29127;-77
2021/04/17 05:01:09;;;;;;;10.48;8.25;;;;;;;4.12;93.80;94369.19;834970;71;28366;-77
2021/04/17 05:16:16;;;;;;;13.98;10.32;;;;;;;4.29;93.40;94363.83;827142;71;31825;-73
2021/04/17 05:31:19;;;;;;;16.00;11.97;;;;;;;4.36;93.30;94366.97;826738;71;32157;-76
2021/04/17 05:46:15;;;;;;;16.65;13.30;;;;;;;4.54;93.01;94375.67;826529;71;31859;-75
2021/04/17 06:01:20;;;;;;;17.37;13.58;;;;;;;4.65;91.68;94364.02;826639;71;31900;-75
2021/04/17 06:16:14;;;;;;;19.70;15.83;;;;;;;4.81;90.33;94377.34;833773;71;31909;-76
2021/04/17 06:31:13;;;;;;;20.95;15.40;;;;;;;4.78;90.10;94371.34;827277;71;31581;-75
2021/04/17 06:46:16;;;;;;;23.67;16.35;;;;;;;4.80;90.08;94338.85;828063;71;31724;-77
2021/04/17 07:01:08;;;;;;;20.88;15.05;;;;;;;4.76;90.71;94327.41;828274;71;28320;-76
2021/04/17 07:16:11;;;;;;;24.55;16.60;;;;;;;4.70;91.13;94332.32;827942;71;29212;-74
2021/04/17 07:31:15;;;;;;;25.72;17.50;;;;;;;4.68;91.45;94334.39;820531;70;32271;-75
2021/04/17 07:46:16;;;;;;;26.15;18.15;;;;;;;4.93;91.04;94324.62;826988;71;33255;-74
2021/04/17 08:01:10;;;;;;;27.02;16.23;;;;;;;5.17;89.80;94321.53;833248;71;30639;-74
2021/04/17 08:16:17;;;;;;;20.52;14.33;;;;;;;5.53;87.71;94302.06;826742;71;33218;-74
2021/04/17 08:31:31;;;;;;;18.92;14.23;;;;;;;5.87;86.98;94287.22;787827;74;33064;-78
2021/04/17 08:46:17;;;;;;;19.75;14.68;;;;;;;5.85;87.53;94285.40;833026;71;33309;-75
2021/04/17 09:01:48;;;;;;;20.15;14.68;;;;;;;5.82;87.47;94261.45;826861;71;32740;-75
2021/04/17 09:16:09;;;;;;;18.30;13.15;;;;;;;5.84;87.05;94254.69;827584;71;30576;-75
2021/04/17 09:31:16;;;;;;;15.95;12.30;;;;;;;6.10;86.84;94233.27;826538;71;33834;-76
2021/04/17 09:46:19;;;;;;;14.15;10.95;;;;;;;6.00;87.12;94227.59;826610;71;32731;-75
2021/04/17 10:01:16;;;;;;;14.45;11.78;;;;;;;6.08;87.45;94209.84;827151;71;33307;-76
2021/04/17 10:16:10;;;;;;;12.23;10.93;;;;;;;6.11;87.68;94214.54;822728;71;27946;-77
2021/04/17 10:31:20;;;;;;;14.35;10.78;;;;;;;6.14;87.10;94204.38;818482;71;32132;-78
2021/04/17 10:46:15;;;;;;;13.32;9.43;;;;;;;6.09;87.49;94203.61;833133;71;32692;-76
2021/04/17 11:01:26;;;;;;;12.07;9.35;;;;;;;6.20;86.88;94188.18;827437;71;32707;-77
2021/04/17 11:16:11;;;;;;;10.65;8.83;;;;;;;6.39;85.57;94181.86;827588;71;29409;-75
2021/04/17 11:31:12;;;;;;;8.00;7.30;;;;;;;6.56;84.90;94174.98;824089;71;28600;-75
2021/04/17 11:46:11;;;;;;;7.50;6.87;;;;;;;6.61;85.14;94168.45;827897;71;27747;-76
2021/04/17 12:01:14;;;;;;;9.40;8.40;;;;;;;6.55;85.81;94156.47;826802;71;32705;-74
2021/04/17 12:16:10;;;;;;;13.80;9.58;;;;;;;6.68;85.06;94129.03;828232;71;30235;-76
2021/04/17 12:31:14;;;;;;;11.33;9.68;;;;;;;6.74;84.18;94122.20;833060;71;32816;-75
2021/04/17 12:46:19;;;;;;;16.67;13.08;;;;;;;6.55;86.01;94129.09;834697;71;32891;-77
2021/04/17 13:01:08;;;;;;;16.52;13.38;;;;;;;6.52;86.46;94108.27;827366;71;28175;-76
2021/04/17 13:16:11;;;;;;;17.92;13.95;;;;;;;6.47;87.14;94125.77;827372;71;29899;-76
2021/04/17 13:31:15;;;;;;;16.12;12.47;;;;;;;6.53;87.38;94096.02;820692;71;32859;-75
2021/04/17 13:46:09;;;;;;;19.48;14.93;;;;;;;6.19;89.56;94094.94;833342;71;30030;-77
2021/04/17 14:01:08;;;;;;;20.55;15.00;;;;;;;6.07;90.99;94078.86;833537;71;29849;-76
2021/04/17 14:16:10;;;;;;;20.57;15.23;;;;;;;5.97;92.64;94074.48;828104;71;30398;-77
2021/04/17 14:31:09;;;;;;;26.30;16.60;;;;;;;5.79;95.41;94071.93;827099;71;29709;-76
2021/04/17 15:01:48;;;;;;;28.25;19.20;;;;;;;5.58;99.20;94069.17;826945;71;32729;-76
2021/04/17 15:16:30;;;;;;;34.20;23.40;;;;;;;5.61;100.00;94050.41;829646;70;33519;-77
2021/04/17 15:31:11;;;;;;;26.05;16.75;;;;;;;5.65;100.00;94066.28;833207;71;30725;-78
2021/04/17 15:46:14;;;;;;;25.45;17.50;;;;;;;5.61;100.00;94066.80;833771;71;29416;-76
2021/04/17 16:16:10;;;;;;;24.37;16.20;;;;;;;5.51;100.00;94091.55;827954;71;28590;-79
2021/04/17 17:01:13;;;;;;;26.07;17.10;;;;;;;5.42;100.00;94072.34;800153;74;31534;-80
2021/04/17 17:16:11;;;;;;;25.25;18.15;;;;;;;5.41;100.00;94105.39;834723;71;31446;-80
2021/04/17 17:31:38;;;;;;;18.10;13.30;;;;;;;5.37;100.00;94110.87;833645;71;32904;-80
2021/04/17 17:46:17;;;;;;;10.05;8.28;;;;;;;5.25;97.54;94125.18;828925;71;32769;-79
2021/04/17 18:01:12;;;;;;;19.55;12.50;;;;;;;5.05;98.40;94125.98;829495;71;29845;-79
2021/04/17 18:16:16;;;;;;;11.57;7.97;;;;;;;4.93;98.96;94130.95;828123;71;32741;-81
2021/04/17 18:31:18;;;;;;;15.05;9.98;;;;;;;4.78;99.54;94143.93;817958;71;32800;-78
2021/04/17 18:46:14;;;;;;;17.82;10.28;;;;;;;4.70;100.00;94153.02;827972;71;30175;-83
2021/04/17 19:01:15;;;;;;;15.38;11.63;;;;;;;5.05;100.00;94164.98;820087;71;33169;-81
2021/04/17 19:16:20;;;;;;;17.30;12.25;;;;;;;5.06;100.00;94171.76;826767;71;33048;-79
2021/04/17 19:31:08;;;;;;;15.45;11.70;;;;;;;4.90;100.00;94152.77;828906;71;29392;-81
2021/04/17 19:46:11;;;;;;;18.40;13.15;;;;;;;5.13;99.76;94161.36;827934;71;30061;-80
2021/04/17 20:01:14;;;;;;;14.63;11.30;;;;;;;5.39;97.86;94143.10;829373;71;33238;-79
2021/04/17 20:16:16;;;;;;;11.68;9.65;;;;;;;5.24;95.62;94131.44;820907;71;33182;-79
2021/04/17 20:31:22;;;;;;;6.15;5.10;;;;;;;4.59;94.92;94111.97;824294;71;32836;-79
2021/04/17 20:46:17;;;;;;;3.42;3.20;;;;;;;4.44;93.53;94106.77;823860;71;33280;-81
2021/04/17 21:01:41;;;;;;;3.60;3.30;;;;;;;4.56;93.28;94100.00;829274;71;29603;-80
2021/04/17 21:16:13;;;;;;;2.50;2.33;;;;;;;4.62;92.79;94100.27;828699;71;32607;-80
2021/04/17 21:31:09;;;;;;;3.65;3.35;;;;;;;4.69;93.50;94095.60;824693;71;29753;-80
2021/04/17 21:46:19;;;;;;;5.10;4.37;;;;;;;4.73;95.16;94075.85;827820;71;32659;-78
2021/04/17 22:01:10;;;;;;;4.55;3.98;;;;;;;4.92;95.30;94091.68;833722;71;30375;-78
2021/04/17 22:16:14;;;;;;;4.67;4.12;;;;;;;5.15;94.68;94088.27;827908;71;32028;-78
2021/04/17 22:31:08;;;;;;;6.12;5.17;;;;;;;5.13;94.16;94078.64;833819;71;29748;-81
2021/04/17 22:46:13;;;;;;;5.95;5.12;;;;;;;4.76;96.19;94062.84;833556;71;32507;-80
2021/04/17 23:01:11;;;;;;;6.30;5.45;;;;;;;4.72;97.31;94053.48;827657;71;30721;-78
2021/04/17 23:16:09;;;;;;;6.47;5.87;;;;;;;4.70;97.55;94024.91;818923;71;30216;-79
2021/04/17 23:31:10;;;;;;;11.43;8.63;;;;;;;4.64;98.48;94020.23;833594;71;30297;-79
2021/04/17 23:46:14;;;;;;;18.77;13.43;;;;;;;4.88;98.02;94010.06;828450;71;29837;-78
